sensor_id;sensor_type;location;lat;lon;timestamp;pressure;altitude;pressure_sealevel;temperature;humidity
8366;BME280;4220;42.502;24.188;2023-11-19T00:00:38;94987.91;;;2.39;100.00
8366;BME280;4220;42.502;24.188;2023-11-19T00:03:05;94989.56;;;2.40;100.00
8366;BME280;4220;42.502;24.188;2023-11-19T00:05:33;94986.06;;;2.47;100.00
8366;BME280;4220;42.502;24.188;2023-11-19T00:08:00;94970.53;;;2.46;100.00
8366;BME280;4220;42.502;24.188;2023-11-19T00:10:27;94989.84;;;2.45;100.00
8366;BME280;4220;42.502;24.188;2023-11-19T00:12:55;94998.28;;;2.55;100.00
8366;BME280;4220;42.502;24.188;2023-11-19T00:15:23;94984.34;;;2.62;100.00
8366;BME280;4220;42.502;24.188;2023-11-19T00:17:50;94982.16;;;2.66;100.00
8366;BME280;4220;42.502;24.188;2023-11-19T00:20:18;95000.78;;;2.71;100.00
8366;BME280;4220;42.502;24.188;2023-11-19T00:22:45;94987.00;;;2.77;100.00
8366;BME280;4220;42.502;24.188;2023-11-19T00:25:13;95014.75;;;2.86;100.00
8366;BME280;4220;42.502;24.188;2023-11-19T00:27:41;94992.81;;;2.87;100.00
8366;BME280;4220;42.502;24.188;2023-11-19T00:30:12;95004.91;;;2.88;100.00
8366;BME280;4220;42.502;24.188;2023-11-19T00:32:39;95001.28;;;2.89;100.00
8366;BME280;4220;42.502;24.188;2023-11-19T00:35:06;95007.34;;;2.90;100.00
8366;BME280;4220;42.502;24.188;2023-11-19T00:37:34;94957.00;;;2.65;100.00
8366;BME280;4220;42.502;24.188;2023-11-19T00:40:00;95009.31;;;2.88;100.00
8366;BME280;4220;42.502;24.188;2023-11-19T00:42:30;95005.72;;;2.89;100.00
8366;BME280;4220;42.502;24.188;2023-11-19T00:44:57;95002.28;;;2.88;100.00
8366;BME280;4220;42.502;24.188;2023-11-19T00:47:25;95010.94;;;2.89;100.00
8366;BME280;4220;42.502;24.188;2023-11-19T00:49:52;95007.34;;;2.90;100.00
8366;BME280;4220;42.502;24.188;2023-11-19T00:52:19;94989.09;;;2.82;100.00
8366;BME280;4220;42.502;24.188;2023-11-19T00:54:47;95010.41;;;2.93;100.00
8366;BME280;4220;42.502;24.188;2023-11-19T00:57:14;95017.47;;;2.93;100.00
8366;BME280;4220;42.502;24.188;2023-11-19T00:59:41;94973.97;;;2.69;100.00
8366;BME280;4220;42.502;24.188;2023-11-19T01:02:08;95005.81;;;2.95;100.00
8366;BME280;4220;42.502;24.188;2023-11-19T01:04:37;95002.41;;;2.95;100.00
8366;BME280;4220;42.502;24.188;2023-11-19T01:07:04;95006.00;;;2.94;100.00
8366;BME280;4220;42.502;24.188;2023-11-19T01:09:32;95005.03;;;2.95;100.00
8366;BME280;4220;42.502;24.188;2023-11-19T01:12:00;95000.47;;;2.89;100.00
8366;BME280;4220;42.502;24.188;2023-11-19T01:14:28;94993.25;;;2.91;100.00
8366;BME280;4220;42.502;24.188;2023-11-19T01:16:55;95003.28;;;2.87;100.00
8366;BME280;4220;42.502;24.188;2023-11-19T01:19:22;94983.50;;;2.85;100.00
8366;BME280;4220;42.502;24.188;2023-11-19T01:21:51;94989.91;;;2.82;100.00
8366;BME280;4220;42.502;24.188;2023-11-19T01:24:18;94984.00;;;2.80;100.00
8366;BME280;4220;42.502;24.188;2023-11-19T01:26:45;94971.28;;;2.77;100.00
8366;BME280;4220;42.502;24.188;2023-11-19T01:29:12;94993.50;;;2.81;100.00
8366;BME280;4220;42.502;24.188;2023-11-19T01:31:40;94989.03;;;2.90;100.00
8366;BME280;4220;42.502;24.188;2023-11-19T01:34:07;94980.00;;;2.92;100.00
8366;BME280;4220;42.502;24.188;2023-11-19T01:36:34;94989.03;;;2.90;100.00
8366;BME280;4220;42.502;24.188;2023-11-19T01:39:02;95004.91;;;2.88;100.00
8366;BME280;4220;42.502;24.188;2023-11-19T01:41:33;95011.78;;;2.89;100.00
8366;BME280;4220;42.502;24.188;2023-11-19T01:44:00;95000.94;;;2.92;100.00
8366;BME280;4220;42.502;24.188;2023-11-19T01:46:27;94995.72;;;2.92;100.00
8366;BME280;4220;42.502;24.188;2023-11-19T01:48:54;94962.31;;;2.72;100.00
8366;BME280;4220;42.502;24.188;2023-11-19T01:51:21;95007.69;;;2.87;100.00
8366;BME280;4220;42.502;24.188;2023-11-19T01:53:49;95001.00;;;2.84;100.00
8366;BME280;4220;42.502;24.188;2023-11-19T01:56:18;94997.66;;;2.90;100.00
8366;BME280;4220;42.502;24.188;2023-11-19T01:58:45;94990.81;;;2.89;100.00
8366;BME280;4220;42.502;24.188;2023-11-19T02:01:14;94996.75;;;2.83;100.00
8366;BME280;4220;42.502;24.188;2023-11-19T02:03:42;94991.34;;;2.85;100.00
8366;BME280;4220;42.502;24.188;2023-11-19T02:06:09;94948.56;;;2.55;100.00
8366;BME280;4220;42.502;24.188;2023-11-19T02:08:36;94981.75;;;2.77;100.00
8366;BME280;4220;42.502;24.188;2023-11-19T02:11:04;95007.47;;;2.74;100.00
8366;BME280;4220;42.502;24.188;2023-11-19T02:13:33;94992.28;;;2.69;100.00
8366;BME280;4220;42.502;24.188;2023-11-19T02:16:02;95014.16;;;2.76;100.00
8366;BME280;4220;42.502;24.188;2023-11-19T02:18:29;94991.41;;;2.77;100.00
8366;BME280;4220;42.502;24.188;2023-11-19T02:20:56;94964.31;;;2.47;100.00
8366;BME280;4220;42.502;24.188;2023-11-19T02:23:26;95022.00;;;2.76;100.00
8366;BME280;4220;42.502;24.188;2023-11-19T02:26:02;95001.06;;;2.76;100.00
8366;BME280;4220;42.502;24.188;2023-11-19T02:28:32;95002.72;;;2.77;100.00
8366;BME280;4220;42.502;24.188;2023-11-19T02:30:59;95035.75;;;2.78;100.00
8366;BME280;4220;42.502;24.188;2023-11-19T02:33:26;95017.25;;;2.80;100.00
8366;BME280;4220;42.502;24.188;2023-11-19T02:35:53;95019.69;;;2.81;100.00
8366;BME280;4220;42.502;24.188;2023-11-19T02:38:20;95020.31;;;2.83;100.00
8366;BME280;4220;42.502;24.188;2023-11-19T02:40:47;95021.31;;;2.82;100.00
8366;BME280;4220;42.502;24.188;2023-11-19T02:43:14;95019.06;;;2.79;100.00
8366;BME280;4220;42.502;24.188;2023-11-19T02:45:43;95019.25;;;2.78;100.00
8366;BME280;4220;42.502;24.188;2023-11-19T02:48:11;94965.81;;;2.41;100.00
8366;BME280;4220;42.502;24.188;2023-11-19T02:50:39;94985.25;;;2.70;100.00
8366;BME280;4220;42.502;24.188;2023-11-19T02:53:06;95005.66;;;2.74;100.00
8366;BME280;4220;42.502;24.188;2023-11-19T02:55:33;94997.81;;;2.74;100.00
8366;BME280;4220;42.502;24.188;2023-11-19T02:58:03;94994.09;;;2.69;100.00
8366;BME280;4220;42.502;24.188;2023-11-19T03:00:35;95005.03;;;2.72;100.00
8366;BME280;4220;42.502;24.188;2023-11-19T03:03:08;94970.53;;;2.46;100.00
8366;BME280;4220;42.502;24.188;2023-11-19T03:05:45;94996.75;;;2.60;100.00
8366;BME280;4220;42.502;24.188;2023-11-19T03:08:14;95008.81;;;2.70;100.00
8366;BME280;4220;42.502;24.188;2023-11-19T03:10:41;95031.22;;;2.72;100.00
8366;BME280;4220;42.502;24.188;2023-11-19T03:13:11;95011.44;;;2.70;100.00
8366;BME280;4220;42.502;24.188;2023-11-19T03:15:39;95014.22;;;2.68;100.00
8366;BME280;4220;42.502;24.188;2023-11-19T03:18:06;95014.22;;;2.68;100.00
8366;BME280;4220;42.502;24.188;2023-11-19T03:20:34;95007.38;;;2.67;100.00
8366;BME280;4220;42.502;24.188;2023-11-19T03:23:01;95015.22;;;2.67;100.00
8366;BME280;4220;42.502;24.188;2023-11-19T03:25:28;95014.94;;;2.62;100.00
8366;BME280;4220;42.502;24.188;2023-11-19T03:27:59;94979.25;;;2.38;100.00
8366;BME280;4220;42.502;24.188;2023-11-19T03:30:26;95019.00;;;2.64;100.00
8366;BME280;4220;42.502;24.188;2023-11-19T03:32:54;94998.88;;;2.65;100.00
8366;BME280;4220;42.502;24.188;2023-11-19T03:35:21;95006.44;;;2.60;100.00
8366;BME280;4220;42.502;24.188;2023-11-19T03:37:49;95011.16;;;2.64;100.00
8366;BME280;4220;42.502;24.188;2023-11-19T03:40:16;95008.06;;;2.61;100.00
8366;BME280;4220;42.502;24.188;2023-11-19T03:42:44;95018.00;;;2.65;100.00
8366;BME280;4220;42.502;24.188;2023-11-19T03:45:11;94932.84;;;2.10;100.00
8366;BME280;4220;42.502;24.188;2023-11-19T03:47:38;95013.66;;;2.58;100.00
8366;BME280;4220;42.502;24.188;2023-11-19T03:50:06;95020.31;;;2.60;100.00
8366;BME280;4220;42.502;24.188;2023-11-19T03:52:34;95020.50;;;2.59;100.00
8366;BME280;4220;42.502;24.188;2023-11-19T03:55:02;95024.06;;;2.66;100.00
8366;BME280;4220;42.502;24.188;2023-11-19T03:57:30;95043.38;;;2.65;100.00
8366;BME280;4220;42.502;24.188;2023-11-19T03:59:57;95020.97;;;2.62;100.00
8366;BME280;4220;42.502;24.188;2023-11-19T04:02:24;95023.41;;;2.64;100.00
8366;BME280;4220;42.502;24.188;2023-11-19T04:04:54;95035.06;;;2.61;100.00
8366;BME280;4220;42.502;24.188;2023-11-19T04:07:21;95041.09;;;2.62;100.00
8366;BME280;4220;42.502;24.188;2023-11-19T04:09:48;95044.53;;;2.62;100.00
8366;BME280;4220;42.502;24.188;2023-11-19T04:12:16;95035.88;;;2.62;100.00
8366;BME280;4220;42.502;24.188;2023-11-19T04:14:43;95035.69;;;2.63;100.00
8366;BME280;4220;42.502;24.188;2023-11-19T04:17:10;95037.97;;;2.67;100.00
8366;BME280;4220;42.502;24.188;2023-11-19T04:19:37;95038.50;;;2.62;100.00
8366;BME280;4220;42.502;24.188;2023-11-19T04:22:06;95052.22;;;2.64;100.00
8366;BME280;4220;42.502;24.188;2023-11-19T04:24:33;95043.53;;;2.63;100.00
8366;BME280;4220;42.502;24.188;2023-11-19T04:27:00;95094.75;;;2.66;100.00
8366;BME280;4220;42.502;24.188;2023-11-19T04:29:30;95060.06;;;2.64;100.00
8366;BME280;4220;42.502;24.188;2023-11-19T04:31:57;95071.69;;;2.61;100.00
8366;BME280;4220;42.502;24.188;2023-11-19T04:34:24;95061.28;;;2.53;100.00
8366;BME280;4220;42.502;24.188;2023-11-19T04:36:51;95052.63;;;2.53;100.00
8366;BME280;4220;42.502;24.188;2023-11-19T04:39:18;95061.97;;;2.47;100.00
8366;BME280;4220;42.502;24.188;2023-11-19T04:41:48;95057.69;;;2.54;100.00
8366;BME280;4220;42.502;24.188;2023-11-19T04:44:15;95054.56;;;2.51;100.00
8366;BME280;4220;42.502;24.188;2023-11-19T04:46:44;95054.75;;;2.49;100.00
8366;BME280;4220;42.502;24.188;2023-11-19T04:49:12;95099.91;;;2.51;100.00
8366;BME280;4220;42.502;24.188;2023-11-19T04:51:39;95060.78;;;2.58;100.00
8366;BME280;4220;42.502;24.188;2023-11-19T04:54:07;95073.69;;;2.59;100.00
8366;BME280;4220;42.502;24.188;2023-11-19T04:56:35;95071.06;;;2.59;100.00
8366;BME280;4220;42.502;24.188;2023-11-19T04:59:02;95090.22;;;2.60;100.00
8366;BME280;4220;42.502;24.188;2023-11-19T05:01:31;95076.13;;;2.61;100.00
8366;BME280;4220;42.502;24.188;2023-11-19T05:04:00;95081.00;;;2.64;100.00
8366;BME280;4220;42.502;24.188;2023-11-19T05:06:27;95081.34;;;2.61;100.00
8366;BME280;4220;42.502;24.188;2023-11-19T05:08:55;95085.94;;;2.59;100.00
8366;BME280;4220;42.502;24.188;2023-11-19T05:11:21;95072.22;;;2.57;100.00
8366;BME280;4220;42.502;24.188;2023-11-19T05:13:48;95070.44;;;2.57;100.00
8366;BME280;4220;42.502;24.188;2023-11-19T05:16:15;95081.72;;;2.58;100.00
8366;BME280;4220;42.502;24.188;2023-11-19T05:18:43;95057.50;;;2.56;100.00
8366;BME280;4220;42.502;24.188;2023-11-19T05:21:11;95049.81;;;2.54;100.00
8366;BME280;4220;42.502;24.188;2023-11-19T05:23:38;95051.31;;;2.49;100.00
8366;BME280;4220;42.502;24.188;2023-11-19T05:26:07;95063.44;;;2.50;100.00
8366;BME280;4220;42.502;24.188;2023-11-19T05:28:37;95103.66;;;2.49;100.00
8366;BME280;4220;42.502;24.188;2023-11-19T05:31:05;95085.53;;;2.47;100.00
8366;BME280;4220;42.502;24.188;2023-11-19T05:33:31;95069.34;;;2.44;100.00
8366;BME280;4220;42.502;24.188;2023-11-19T05:35:58;95071.63;;;2.47;100.00
8366;BME280;4220;42.502;24.188;2023-11-19T05:38:26;95064.59;;;2.47;100.00
8366;BME280;4220;42.502;24.188;2023-11-19T05:40:54;95060.50;;;2.45;100.00
8366;BME280;4220;42.502;24.188;2023-11-19T05:43:21;95052.81;;;2.43;100.00
8366;BME280;4220;42.502;24.188;2023-11-19T05:45:47;95050.09;;;2.37;100.00
8366;BME280;4220;42.502;24.188;2023-11-19T05:48:14;95069.69;;;2.41;100.00
8366;BME280;4220;42.502;24.188;2023-11-19T05:50:42;95077.19;;;2.44;100.00
8366;BME280;4220;42.502;24.188;2023-11-19T05:53:09;95123.66;;;2.42;100.00
8366;BME280;4220;42.502;24.188;2023-11-19T05:55:40;95061.56;;;2.36;100.00
8366;BME280;4220;42.502;24.188;2023-11-19T05:58:14;95068.88;;;2.40;100.00
8366;BME280;4220;42.502;24.188;2023-11-19T06:00:41;95075.09;;;2.39;100.00
8366;BME280;4220;42.502;24.188;2023-11-19T06:03:08;95079.34;;;2.40;100.00
8366;BME280;4220;42.502;24.188;2023-11-19T06:05:35;95075.75;;;2.41;100.00
8366;BME280;4220;42.502;24.188;2023-11-19T06:08:02;95067.72;;;2.43;100.00
8366;BME280;4220;42.502;24.188;2023-11-19T06:10:29;95077.03;;;2.45;100.00
8366;BME280;4220;42.502;24.188;2023-11-19T06:12:59;95126.09;;;2.43;100.00
8366;BME280;4220;42.502;24.188;2023-11-19T06:15:26;95110.88;;;2.47;100.00
8366;BME280;4220;42.502;24.188;2023-11-19T06:17:53;95101.06;;;2.49;100.00
8366;BME280;4220;42.502;24.188;2023-11-19T06:20:20;95115.78;;;2.50;100.00
8366;BME280;4220;42.502;24.188;2023-11-19T06:22:47;95089.28;;;2.53;100.00
8366;BME280;4220;42.502;24.188;2023-11-19T06:25:14;95102.50;;;2.51;100.00
8366;BME280;4220;42.502;24.188;2023-11-19T06:27:41;95157.78;;;2.56;100.00
8366;BME280;4220;42.502;24.188;2023-11-19T06:30:11;95106.25;;;2.57;100.00
8366;BME280;4220;42.502;24.188;2023-11-19T06:32:38;95093.31;;;2.25;100.00
8366;BME280;4220;42.502;24.188;2023-11-19T06:35:05;95145.00;;;2.61;100.00
8366;BME280;4220;42.502;24.188;2023-11-19T06:37:32;95102.09;;;2.40;100.00
8366;BME280;4220;42.502;24.188;2023-11-19T06:39:59;95147.28;;;2.64;100.00
8366;BME280;4220;42.502;24.188;2023-11-19T06:42:26;95143.50;;;2.67;100.00
8366;BME280;4220;42.502;24.188;2023-11-19T06:44:54;95147.25;;;2.73;100.00
8366;BME280;4220;42.502;24.188;2023-11-19T06:47:25;95181.94;;;2.75;100.00
8366;BME280;4220;42.502;24.188;2023-11-19T06:49:52;95159.19;;;2.75;100.00
8366;BME280;4220;42.502;24.188;2023-11-19T06:52:19;95164.19;;;2.85;100.00
8366;BME280;4220;42.502;24.188;2023-11-19T06:54:46;95180.34;;;2.96;100.00
8366;BME280;4220;42.502;24.188;2023-11-19T06:57:13;95192.59;;;2.96;100.00
8366;BME280;4220;42.502;24.188;2023-11-19T06:59:40;95177.75;;;2.88;100.00
8366;BME280;4220;42.502;24.188;2023-11-19T07:02:07;95193.81;;;2.85;100.00
8366;BME280;4220;42.502;24.188;2023-11-19T07:04:35;95196.38;;;2.93;100.00
8366;BME280;4220;42.502;24.188;2023-11-19T07:07:02;95217.34;;;2.93;100.00
8366;BME280;4220;42.502;24.188;2023-11-19T07:09:31;95237.31;;;2.94;100.00
8366;BME280;4220;42.502;24.188;2023-11-19T07:11:58;95221.94;;;2.91;100.00
8366;BME280;4220;42.502;24.188;2023-11-19T07:14:25;95218.34;;;2.92;100.00
8366;BME280;4220;42.502;24.188;2023-11-19T07:16:52;95222.13;;;2.90;100.00
8366;BME280;4220;42.502;24.188;2023-11-19T07:19:19;95241.88;;;3.00;100.00
8366;BME280;4220;42.502;24.188;2023-11-19T07:21:47;95209.56;;;3.08;100.00
8366;BME280;4220;42.502;24.188;2023-11-19T07:24:14;95215.91;;;3.21;100.00
8366;BME280;4220;42.502;24.188;2023-11-19T07:26:42;95202.94;;;3.20;100.00
8366;BME280;4220;42.502;24.188;2023-11-19T07:29:10;95208.66;;;3.23;100.00
8366;BME280;4220;42.502;24.188;2023-11-19T07:31:36;95188.19;;;2.96;100.00
8366;BME280;4220;42.502;24.188;2023-11-19T07:34:03;95213.91;;;3.23;100.00
8366;BME280;4220;42.502;24.188;2023-11-19T07:36:32;95184.91;;;3.25;100.00
8366;BME280;4220;42.502;24.188;2023-11-19T07:39:00;95214.72;;;3.47;100.00
8366;BME280;4220;42.502;24.188;2023-11-19T07:41:27;95217.75;;;3.36;100.00
8366;BME280;4220;42.502;24.188;2023-11-19T07:43:54;95246.97;;;3.24;100.00
8366;BME280;4220;42.502;24.188;2023-11-19T07:46:21;95179.88;;;3.15;100.00
8366;BME280;4220;42.502;24.188;2023-11-19T07:48:48;95222.94;;;3.21;100.00
8366;BME280;4220;42.502;24.188;2023-11-19T07:51:15;95214.25;;;3.20;100.00
8366;BME280;4220;42.502;24.188;2023-11-19T07:53:42;95209.81;;;3.21;100.00
8366;BME280;4220;42.502;24.188;2023-11-19T07:56:11;95236.47;;;3.24;100.00
8366;BME280;4220;42.502;24.188;2023-11-19T07:58:38;95243.84;;;3.29;100.00
8366;BME280;4220;42.502;24.188;2023-11-19T08:01:05;95230.22;;;3.34;100.00
8366;BME280;4220;42.502;24.188;2023-11-19T08:03:32;95220.59;;;3.26;100.00
8366;BME280;4220;42.502;24.188;2023-11-19T08:05:59;95278.22;;;3.34;100.00
8366;BME280;4220;42.502;24.188;2023-11-19T08:08:26;95232.66;;;3.35;100.00
8366;BME280;4220;42.502;24.188;2023-11-19T08:10:55;95241.41;;;3.50;100.00
8366;BME280;4220;42.502;24.188;2023-11-19T08:13:23;95226.44;;;3.36;100.00
8366;BME280;4220;42.502;24.188;2023-11-19T08:15:50;95258.25;;;3.33;100.00
8366;BME280;4220;42.502;24.188;2023-11-19T08:18:17;95230.69;;;3.37;100.00
8366;BME280;4220;42.502;24.188;2023-11-19T08:20:44;95242.03;;;3.29;100.00
8366;BME280;4220;42.502;24.188;2023-11-19T08:23:14;95233.78;;;3.10;100.00
8366;BME280;4220;42.502;24.188;2023-11-19T08:25:41;95259.53;;;3.06;100.00
8366;BME280;4220;42.502;24.188;2023-11-19T08:28:08;95269.53;;;3.03;100.00
8366;BME280;4220;42.502;24.188;2023-11-19T08:30:36;95259.25;;;2.93;100.00
8366;BME280;4220;42.502;24.188;2023-11-19T08:33:03;95255.03;;;2.92;100.00
8366;BME280;4220;42.502;24.188;2023-11-19T08:35:31;95248.78;;;2.93;100.00
8366;BME280;4220;42.502;24.188;2023-11-19T08:37:58;95260.41;;;2.91;100.00
8366;BME280;4220;42.502;24.188;2023-11-19T08:40:25;95321.59;;;3.06;100.00
8366;BME280;4220;42.502;24.188;2023-11-19T08:42:52;95256.59;;;3.01;100.00
8366;BME280;4220;42.502;24.188;2023-11-19T08:45:19;95228.56;;;2.71;100.00
8366;BME280;4220;42.502;24.188;2023-11-19T08:47:47;95267.25;;;3.00;100.00
8366;BME280;4220;42.502;24.188;2023-11-19T08:50:14;95257.59;;;3.00;100.00
8366;BME280;4220;42.502;24.188;2023-11-19T08:52:41;95269.69;;;3.09;100.00
8366;BME280;4220;42.502;24.188;2023-11-19T08:55:08;95261.31;;;3.06;100.00
8366;BME280;4220;42.502;24.188;2023-11-19T08:57:35;95290.13;;;3.14;100.00
8366;BME280;4220;42.502;24.188;2023-11-19T09:00:02;95282.91;;;3.16;100.00
8366;BME280;4220;42.502;24.188;2023-11-19T09:02:33;95293.06;;;3.11;100.00
8366;BME280;4220;42.502;24.188;2023-11-19T09:05:01;95287.63;;;3.20;100.00
8366;BME280;4220;42.502;24.188;2023-11-19T09:07:28;95286.81;;;3.20;100.00
8366;BME280;4220;42.502;24.188;2023-11-19T09:09:55;95300.69;;;3.28;100.00
8366;BME280;4220;42.502;24.188;2023-11-19T09:12:21;95320.88;;;3.20;100.00
8366;BME280;4220;42.502;24.188;2023-11-19T09:14:48;95293.81;;;3.27;100.00
8366;BME280;4220;42.502;24.188;2023-11-19T09:17:15;95284.78;;;3.30;100.00
8366;BME280;4220;42.502;24.188;2023-11-19T09:19:43;95277.06;;;3.37;100.00
8366;BME280;4220;42.502;24.188;2023-11-19T09:22:11;95279.59;;;3.75;100.00
8366;BME280;4220;42.502;24.188;2023-11-19T09:24:38;95285.19;;;3.95;100.00
8366;BME280;4220;42.502;24.188;2023-11-19T09:27:05;95274.59;;;4.03;100.00
8366;BME280;4220;42.502;24.188;2023-11-19T09:29:32;95287.91;;;4.24;100.00
8366;BME280;4220;42.502;24.188;2023-11-19T09:31:59;95291.06;;;4.20;100.00
8366;BME280;4220;42.502;24.188;2023-11-19T09:34:26;95279.38;;;4.22;100.00
8366;BME280;4220;42.502;24.188;2023-11-19T09:36:53;95276.53;;;4.46;100.00
8366;BME280;4220;42.502;24.188;2023-11-19T09:39:21;95271.44;;;4.59;100.00
8366;BME280;4220;42.502;24.188;2023-11-19T09:41:48;95269.97;;;4.42;100.00
8366;BME280;4220;42.502;24.188;2023-11-19T09:44:15;95286.88;;;4.25;100.00
8366;BME280;4220;42.502;24.188;2023-11-19T09:46:44;95240.16;;;4.06;100.00
8366;BME280;4220;42.502;24.188;2023-11-19T09:49:11;95318.19;;;4.49;100.00
8366;BME280;4220;42.502;24.188;2023-11-19T09:51:39;95303.03;;;4.37;100.00
8366;BME280;4220;42.502;24.188;2023-11-19T09:54:07;95269.06;;;4.35;100.00
8366;BME280;4220;42.502;24.188;2023-11-19T09:56:37;95282.59;;;4.47;100.00
8366;BME280;4220;42.502;24.188;2023-11-19T09:59:05;95260.16;;;4.74;100.00
8366;BME280;4220;42.502;24.188;2023-11-19T10:01:32;95280.97;;;4.90;100.00
8366;BME280;4220;42.502;24.188;2023-11-19T10:04:01;95272.47;;;4.73;100.00
8366;BME280;4220;42.502;24.188;2023-11-19T10:06:28;95269.09;;;4.79;100.00
8366;BME280;4220;42.502;24.188;2023-11-19T10:08:56;95284.50;;;4.82;100.00
8366;BME280;4220;42.502;24.188;2023-11-19T10:11:22;95234.66;;;4.30;100.00
8366;BME280;4220;42.502;24.188;2023-11-19T10:13:51;95271.84;;;4.56;100.00
8366;BME280;4220;42.502;24.188;2023-11-19T10:16:19;95261.75;;;4.60;100.00
8366;BME280;4220;42.502;24.188;2023-11-19T10:18:46;95271.09;;;4.77;100.00
8366;BME280;4220;42.502;24.188;2023-11-19T10:21:13;95285.69;;;4.80;100.00
8366;BME280;4220;42.502;24.188;2023-11-19T10:23:49;95272.91;;;4.77;100.00
8366;BME280;4220;42.502;24.188;2023-11-19T10:26:17;95263.41;;;4.46;100.00
8366;BME280;4220;42.502;24.188;2023-11-19T10:28:43;95285.50;;;4.52;100.00
8366;BME280;4220;42.502;24.188;2023-11-19T10:31:13;95270.25;;;4.47;100.00
8366;BME280;4220;42.502;24.188;2023-11-19T10:33:40;95236.50;;;4.30;100.00
8366;BME280;4220;42.502;24.188;2023-11-19T10:36:08;95265.28;;;4.52;100.00
8366;BME280;4220;42.502;24.188;2023-11-19T10:38:35;95263.06;;;4.64;100.00
8366;BME280;4220;42.502;24.188;2023-11-19T10:41:02;95250.34;;;4.53;100.00
8366;BME280;4220;42.502;24.188;2023-11-19T10:43:29;95260.78;;;4.61;100.00
8366;BME280;4220;42.502;24.188;2023-11-19T10:46:09;95237.84;;;4.55;100.00
8366;BME280;4220;42.502;24.188;2023-11-19T10:48:38;95226.16;;;4.43;100.00
8366;BME280;4220;42.502;24.188;2023-11-19T10:51:06;95233.34;;;4.49;100.00
8366;BME280;4220;42.502;24.188;2023-11-19T10:53:36;95257.66;;;4.28;100.00
8366;BME280;4220;42.502;24.188;2023-11-19T10:56:06;95226.22;;;4.20;100.00
8366;BME280;4220;42.502;24.188;2023-11-19T10:58:36;95231.34;;;4.36;100.00
8366;BME280;4220;42.502;24.188;2023-11-19T11:01:09;95236.66;;;4.28;100.00
8366;BME280;4220;42.502;24.188;2023-11-19T11:03:40;95251.31;;;4.37;100.00
8366;BME280;4220;42.502;24.188;2023-11-19T11:06:08;95219.72;;;4.31;100.00
8366;BME280;4220;42.502;24.188;2023-11-19T11:08:37;95243.81;;;4.20;100.00
8366;BME280;4220;42.502;24.188;2023-11-19T11:11:05;95255.47;;;4.17;100.00
8366;BME280;4220;42.502;24.188;2023-11-19T11:13:33;95253.56;;;4.26;100.00
8366;BME280;4220;42.502;24.188;2023-11-19T11:16:00;95232.56;;;4.26;100.00
8366;BME280;4220;42.502;24.188;2023-11-19T11:18:27;95239.28;;;4.28;100.00
8366;BME280;4220;42.502;24.188;2023-11-19T11:20:59;95210.47;;;4.20;100.00
8366;BME280;4220;42.502;24.188;2023-11-19T11:23:46;95227.19;;;4.42;100.00
8366;BME280;4220;42.502;24.188;2023-11-19T11:29:22;95175.72;;;4.33;100.00
8366;BME280;4220;42.502;24.188;2023-11-19T11:31:58;95211.59;;;4.55;100.00
8366;BME280;4220;42.502;24.188;2023-11-19T11:34:44;95221.72;;;4.73;100.00
8366;BME280;4220;42.502;24.188;2023-11-19T11:37:18;95194.09;;;4.77;100.00
8366;BME280;4220;42.502;24.188;2023-11-19T11:39:46;95198.34;;;4.78;100.00
8366;BME280;4220;42.502;24.188;2023-11-19T11:42:34;95244.13;;;4.69;100.00
8366;BME280;4220;42.502;24.188;2023-11-19T11:45:03;95203.25;;;4.81;100.00
8366;BME280;4220;42.502;24.188;2023-11-19T11:50:51;95214.31;;;4.61;100.00
8366;BME280;4220;42.502;24.188;2023-11-19T11:53:20;95175.78;;;4.83;100.00
8366;BME280;4220;42.502;24.188;2023-11-19T11:56:09;95196.63;;;4.85;100.00
8366;BME280;4220;42.502;24.188;2023-11-19T11:58:36;95132.22;;;4.89;100.00
8366;BME280;4220;42.502;24.188;2023-11-19T12:01:07;95152.75;;;5.00;100.00
8366;BME280;4220;42.502;24.188;2023-11-19T12:03:35;95160.09;;;4.90;100.00
8366;BME280;4220;42.502;24.188;2023-11-19T12:06:04;95205.03;;;4.95;100.00
8366;BME280;4220;42.502;24.188;2023-11-19T12:08:34;95170.31;;;4.99;100.00
8366;BME280;4220;42.502;24.188;2023-11-19T12:11:01;95208.38;;;5.03;100.00
8366;BME280;4220;42.502;24.188;2023-11-19T12:13:53;95181.56;;;4.93;100.00
8366;BME280;4220;42.502;24.188;2023-11-19T12:16:23;95180.31;;;4.75;100.00
8366;BME280;4220;42.502;24.188;2023-11-19T12:18:53;95149.13;;;5.01;100.00
8366;BME280;4220;42.502;24.188;2023-11-19T12:21:30;95163.03;;;5.16;100.00
8366;BME280;4220;42.502;24.188;2023-11-19T12:23:59;95159.25;;;5.04;100.00
8366;BME280;4220;42.502;24.188;2023-11-19T12:26:37;95162.59;;;5.12;100.00
8366;BME280;4220;42.502;24.188;2023-11-19T12:29:04;95139.13;;;5.11;100.00
8366;BME280;4220;42.502;24.188;2023-11-19T12:31:32;95150.63;;;5.10;100.00
8366;BME280;4220;42.502;24.188;2023-11-19T12:34:05;95166.66;;;5.15;100.00
8366;BME280;4220;42.502;24.188;2023-11-19T12:36:34;95159.94;;;5.12;100.00
8366;BME280;4220;42.502;24.188;2023-11-19T12:39:02;95150.72;;;5.02;100.00
8366;BME280;4220;42.502;24.188;2023-11-19T12:41:30;95136.25;;;5.27;100.00
8366;BME280;4220;42.502;24.188;2023-11-19T12:44:09;95145.88;;;5.62;100.00
8366;BME280;4220;42.502;24.188;2023-11-19T12:46:36;95190.41;;;5.43;100.00
8366;BME280;4220;42.502;24.188;2023-11-19T12:49:03;95138.81;;;5.42;100.00
8366;BME280;4220;42.502;24.188;2023-11-19T12:51:31;95139.88;;;5.47;100.00
8366;BME280;4220;42.502;24.188;2023-11-19T12:53:58;95135.59;;;5.46;100.00
8366;BME280;4220;42.502;24.188;2023-11-19T12:56:27;95126.97;;;5.31;100.00
8366;BME280;4220;42.502;24.188;2023-11-19T12:58:55;95140.09;;;5.31;100.00
8366;BME280;4220;42.502;24.188;2023-11-19T13:01:22;95130.94;;;5.20;100.00
8366;BME280;4220;42.502;24.188;2023-11-19T13:03:48;95135.41;;;5.26;100.00
8366;BME280;4220;42.502;24.188;2023-11-19T13:06:16;95136.13;;;5.35;100.00
8366;BME280;4220;42.502;24.188;2023-11-19T13:08:47;95137.72;;;5.36;100.00
8366;BME280;4220;42.502;24.188;2023-11-19T13:11:31;95121.72;;;5.52;100.00
8366;BME280;4220;42.502;24.188;2023-11-19T13:14:00;95129.41;;;6.03;100.00
8366;BME280;4220;42.502;24.188;2023-11-19T13:16:30;95140.88;;;6.57;100.00
8366;BME280;4220;42.502;24.188;2023-11-19T13:18:57;95124.16;;;6.84;100.00
8366;BME280;4220;42.502;24.188;2023-11-19T13:21:25;95119.25;;;6.68;98.69